Time;durP1;ratioP1;P1;durP2;ratioP2;P2;SDS_P1;SDS_P2;PMS_P1;PMS_P2;Temp;Humidity;BMP_temperature;BMP_pressure;BME280_temperature;BME280_humidity;BME280_pressure;Samples;Min_cycle;Max_cycle;Signal;HPM_P1;HPM_P2
2021/10/17 00:00:33;;;;;;;36.95;21.13;;;;;;;7.25;100.00;100752.94;5134300;27;20948;-70
2021/10/17 00:03:02;;;;;;;32.50;18.92;;;;;;;7.16;100.00;100755.94;5134383;27;20045;-70
2021/10/17 00:05:33;;;;;;;35.25;21.27;;;;;;;7.03;100.00;100755.53;5134229;27;20503;-70
2021/10/17 00:08:02;;;;;;;34.92;19.00;;;;;;;6.92;100.00;100756.84;5134362;27;20039;-70
2021/10/17 00:10:32;;;;;;;32.00;19.55;;;;;;;6.96;100.00;100753.19;5133975;27;20043;-70
2021/10/17 00:13:05;;;;;;;33.03;19.55;;;;;;;7.02;100.00;100751.13;5133330;27;20409;-69
2021/10/17 00:15:35;;;;;;;35.38;19.77;;;;;;;7.05;100.00;100756.34;5134092;27;20036;-70
2021/10/17 00:18:05;;;;;;;34.58;19.90;;;;;;;7.02;100.00;100758.22;5134298;27;20096;-68
2021/10/17 00:20:33;;;;;;;34.03;18.77;;;;;;;7.28;100.00;100752.81;5134361;27;20055;-69
2021/10/17 00:23:01;;;;;;;33.38;19.33;;;;;;;7.26;100.00;100754.66;5134122;27;20050;-68
2021/10/17 00:25:30;;;;;;;33.38;19.75;;;;;;;7.23;100.00;100740.63;5133707;27;20088;-67
2021/10/17 00:27:58;;;;;;;30.08;17.95;;;;;;;7.36;100.00;100749.88;5134060;27;20039;-69
2021/10/17 00:30:28;;;;;;;31.20;16.80;;;;;;;7.30;100.00;100750.09;5133688;27;20405;-69
2021/10/17 00:32:57;;;;;;;32.42;18.70;;;;;;;7.17;100.00;100753.22;5133917;27;20051;-69
2021/10/17 00:35:25;;;;;;;31.60;18.58;;;;;;;7.06;100.00;100762.53;5133464;27;20053;-70
2021/10/17 00:37:54;;;;;;;31.60;18.35;;;;;;;6.95;100.00;100754.97;5133700;27;20167;-71
2021/10/17 00:40:22;;;;;;;32.15;18.27;;;;;;;6.87;100.00;100752.59;5133621;27;20043;-71
2021/10/17 00:42:51;;;;;;;33.63;19.42;;;;;;;6.82;100.00;100749.22;5133875;27;20119;-71
2021/10/17 00:45:27;;;;;;;32.75;18.35;;;;;;;6.78;100.00;100758.22;5132538;27;20043;-72
2021/10/17 00:47:57;;;;;;;32.45;18.60;;;;;;;6.82;100.00;100764.28;5133734;27;20484;-72
2021/10/17 00:50:26;;;;;;;30.10;18.25;;;;;;;6.87;100.00;100763.19;5133130;27;20480;-72
2021/10/17 00:52:55;;;;;;;28.80;17.67;;;;;;;6.79;100.00;100754.66;5133687;27;20121;-72
2021/10/17 00:55:24;;;;;;;31.23;18.65;;;;;;;6.69;100.00;100753.25;5133195;27;20404;-72
2021/10/17 00:57:52;;;;;;;28.33;18.42;;;;;;;6.78;100.00;100750.28;5133512;27;20035;-72
2021/10/17 01:00:21;;;;;;;34.05;18.60;;;;;;;6.76;100.00;100749.47;5133127;27;20082;-72
2021/10/17 01:02:49;;;;;;;29.48;18.02;;;;;;;6.62;100.00;100743.78;5133428;27;20046;-71
2021/10/17 01:05:19;;;;;;;31.45;18.35;;;;;;;6.51;100.00;100749.47;5131619;27;20047;-71
2021/10/17 01:07:48;;;;;;;34.80;19.30;;;;;;;6.54;100.00;100751.16;5133585;27;20138;-70
2021/10/17 01:10:18;;;;;;;33.55;19.48;;;;;;;6.51;100.00;100748.63;5132992;27;20468;-70
2021/10/17 01:12:46;;;;;;;35.03;19.35;;;;;;;6.36;100.00;100747.34;5132947;27;20104;-70
2021/10/17 01:15:14;;;;;;;32.85;18.88;;;;;;;6.50;100.00;100747.75;5133354;27;20495;-71
2021/10/17 01:17:43;;;;;;;29.55;18.88;;;;;;;6.29;100.00;100749.38;5133082;27;20100;-71
2021/10/17 01:20:12;;;;;;;31.38;18.90;;;;;;;6.21;100.00;100750.56;5131940;27;20059;-71
2021/10/17 01:22:41;;;;;;;29.83;18.27;;;;;;;6.27;100.00;100751.22;5133324;27;20207;-71
2021/10/17 01:25:10;;;;;;;35.45;20.52;;;;;;;6.13;100.00;100749.94;5133423;27;20059;-70
2021/10/17 01:27:39;;;;;;;32.05;19.20;;;;;;;6.08;100.00;100750.13;5131342;27;20453;-71
2021/10/17 01:30:10;;;;;;;35.63;19.38;;;;;;;6.04;100.00;100753.78;5132910;27;20073;-70
2021/10/17 01:32:38;;;;;;;35.47;19.40;;;;;;;6.06;100.00;100751.06;5132634;27;20398;-71
2021/10/17 01:35:07;;;;;;;36.97;20.42;;;;;;;6.03;100.00;100754.69;5133060;27;20050;-70
2021/10/17 01:37:36;;;;;;;36.65;19.45;;;;;;;6.05;100.00;100758.16;5132704;28;20039;-71
2021/10/17 01:40:06;;;;;;;33.33;19.83;;;;;;;6.11;100.00;100757.94;5132888;27;20039;-71
2021/10/17 01:42:35;;;;;;;29.60;18.00;;;;;;;6.27;100.00;100756.53;5132616;27;20071;-70
2021/10/17 01:45:04;;;;;;;30.67;18.50;;;;;;;6.27;100.00;100759.16;5133226;27;20067;-71
2021/10/17 01:47:32;;;;;;;29.02;17.63;;;;;;;6.39;100.00;100754.34;5132468;27;20044;-68
2021/10/17 01:50:01;;;;;;;30.75;18.15;;;;;;;6.17;100.00;100759.50;5132898;27;20046;-69
2021/10/17 01:52:29;;;;;;;29.35;17.73;;;;;;;6.14;100.00;100759.63;5132244;27;20049;-70
2021/10/17 01:54:58;;;;;;;31.30;18.17;;;;;;;6.06;100.00;100751.94;5132555;27;20471;-70
2021/10/17 01:57:27;;;;;;;33.47;18.98;;;;;;;6.08;100.00;100750.13;5134973;27;20043;-70
2021/10/17 01:59:55;;;;;;;31.35;17.48;;;;;;;6.12;100.00;100761.47;5136790;27;20047;-68
2021/10/17 02:02:23;;;;;;;31.08;18.35;;;;;;;6.17;100.00;100754.22;5136611;27;20507;-69
2021/10/17 02:04:52;;;;;;;29.85;17.40;;;;;;;6.13;100.00;100760.53;5136898;27;20039;-71
2021/10/17 02:07:20;;;;;;;29.65;17.27;;;;;;;6.23;100.00;100765.47;5136710;27;20043;-73
2021/10/17 02:09:48;;;;;;;28.48;17.20;;;;;;;6.14;100.00;100762.28;5136660;27;20043;-71
2021/10/17 02:12:21;;;;;;;26.52;16.20;;;;;;;6.11;100.00;100759.72;5136747;27;20039;-71
2021/10/17 02:14:49;;;;;;;27.13;16.88;;;;;;;6.08;100.00;100755.41;5136728;27;20043;-70
2021/10/17 02:17:17;;;;;;;25.65;16.25;;;;;;;6.08;100.00;100754.53;5136578;27;20100;-71
2021/10/17 02:19:46;;;;;;;27.75;16.25;;;;;;;6.07;100.00;100752.78;5136242;27;20043;-66
2021/10/17 02:22:14;;;;;;;27.58;16.60;;;;;;;6.08;100.00;100758.06;5136022;27;20049;-67
2021/10/17 02:24:43;;;;;;;30.42;17.45;;;;;;;6.01;100.00;100753.88;5136062;27;20066;-68
2021/10/17 02:27:11;;;;;;;26.90;17.08;;;;;;;5.98;100.00;100756.59;5136465;27;20390;-68
2021/10/17 02:29:40;;;;;;;29.42;18.08;;;;;;;5.90;100.00;100751.59;5136101;27;20088;-70
2021/10/17 02:32:09;;;;;;;31.30;17.40;;;;;;;5.78;100.00;100751.94;5135799;27;20508;-70
2021/10/17 02:34:38;;;;;;;30.08;18.02;;;;;;;5.95;100.00;100754.94;5135672;27;20046;-70
2021/10/17 02:37:06;;;;;;;27.92;17.80;;;;;;;6.00;100.00;100747.72;5135927;27;20051;-70
2021/10/17 02:39:34;;;;;;;27.65;16.50;;;;;;;5.89;100.00;100754.25;5135561;27;20039;-70
2021/10/17 02:42:04;;;;;;;27.63;17.75;;;;;;;5.73;100.00;100749.44;5135812;27;20115;-70
2021/10/17 02:44:32;;;;;;;31.05;17.17;;;;;;;5.71;100.00;100756.59;5135575;27;20043;-69
2021/10/17 02:47:02;;;;;;;24.65;16.13;;;;;;;5.62;100.00;100748.06;5135891;27;20042;-70
2021/10/17 02:49:30;;;;;;;29.40;17.15;;;;;;;5.49;100.00;100755.50;5135907;27;20445;-69
2021/10/17 02:51:58;;;;;;;29.15;17.10;;;;;;;5.61;100.00;100760.44;5136011;27;20040;-70
2021/10/17 02:54:26;;;;;;;28.35;17.98;;;;;;;5.75;100.00;100752.91;5135390;27;20391;-69
2021/10/17 02:56:54;;;;;;;28.05;16.67;;;;;;;5.79;100.00;100755.44;5135775;27;20110;-69
2021/10/17 02:59:23;;;;;;;29.05;15.80;;;;;;;5.72;100.00;100758.31;5135383;27;20035;-76
2021/10/17 03:01:51;;;;;;;29.10;16.17;;;;;;;5.67;100.00;100760.22;5135769;27;20043;-70
2021/10/17 03:04:21;;;;;;;28.05;16.67;;;;;;;5.69;100.00;100761.06;5135770;27;20046;-69
2021/10/17 03:06:49;;;;;;;29.33;16.73;;;;;;;5.62;100.00;100767.47;5135937;27;20069;-70
2021/10/17 03:09:17;;;;;;;26.35;16.35;;;;;;;5.74;100.00;100761.78;5134994;27;20470;-69
2021/10/17 03:11:45;;;;;;;27.00;16.33;;;;;;;5.57;100.00;100766.72;5134917;27;20088;-69
2021/10/17 03:14:14;;;;;;;26.60;16.27;;;;;;;5.44;100.00;100768.03;5135397;27;20081;-69
2021/10/17 03:16:45;;;;;;;24.27;15.25;;;;;;;5.42;100.00;100772.50;5135214;27;20047;-69
2021/10/17 03:19:16;;;;;;;26.13;15.45;;;;;;;5.67;100.00;100764.66;5135587;27;20043;-69
2021/10/17 03:21:46;;;;;;;26.10;15.07;;;;;;;5.65;100.00;100771.78;5134907;27;20080;-69
2021/10/17 03:24:15;;;;;;;26.27;14.52;;;;;;;5.47;100.00;100778.50;5133855;27;20075;-69
2021/10/17 03:26:43;;;;;;;23.23;14.00;;;;;;;5.43;100.00;100776.88;5134776;27;20071;-69
2021/10/17 03:29:16;;;;;;;23.00;14.00;;;;;;;5.51;100.00;100766.94;5135546;27;20062;-71
2021/10/17 03:31:44;;;;;;;26.73;14.55;;;;;;;5.60;100.00;100774.59;5134919;27;20055;-71
2021/10/17 03:34:12;;;;;;;29.13;15.35;;;;;;;5.49;100.00;100774.03;5135051;27;20464;-70
2021/10/17 03:36:41;;;;;;;28.10;15.18;;;;;;;5.32;100.00;100773.72;5134634;27;20125;-70
2021/10/17 03:39:10;;;;;;;20.48;14.45;;;;;;;5.29;100.00;100774.66;5134705;27;20046;-71
2021/10/17 03:41:38;;;;;;;22.20;13.52;;;;;;;5.39;100.00;100773.44;5133313;27;20071;-70
2021/10/17 03:44:07;;;;;;;23.38;14.73;;;;;;;5.31;100.00;100774.63;5134816;27;20399;-70
2021/10/17 03:46:35;;;;;;;24.17;14.25;;;;;;;5.17;100.00;100781.16;5134516;27;20498;-71
2021/10/17 03:49:03;;;;;;;24.83;14.15;;;;;;;5.08;100.00;100786.72;5133338;27;20067;-70
2021/10/17 03:51:31;;;;;;;24.55;14.35;;;;;;;4.99;100.00;100787.00;5134318;27;20057;-71
2021/10/17 03:54:00;;;;;;;25.10;15.18;;;;;;;4.91;100.00;100783.69;5134510;27;20067;-68
2021/10/17 03:56:30;;;;;;;26.50;14.98;;;;;;;4.86;100.00;100782.97;5134496;27;20055;-68
2021/10/17 03:58:58;;;;;;;25.20;15.15;;;;;;;4.82;100.00;100778.66;5134440;27;20039;-67
2021/10/17 04:01:26;;;;;;;27.38;15.25;;;;;;;4.72;100.00;100777.19;5134421;27;20162;-74
2021/10/17 04:03:55;;;;;;;24.35;14.43;;;;;;;4.71;100.00;100778.09;5134368;27;20063;-67
2021/10/17 04:06:23;;;;;;;25.95;15.05;;;;;;;4.64;100.00;100779.22;5134338;27;20058;-72
2021/10/17 04:08:53;;;;;;;25.65;15.13;;;;;;;4.64;100.00;100774.78;5134686;27;20494;-73
2021/10/17 04:11:22;;;;;;;24.45;15.48;;;;;;;4.56;100.00;100780.28;5134105;27;20476;-74
2021/10/17 04:13:51;;;;;;;26.45;15.43;;;;;;;4.51;100.00;100787.44;5134250;27;20463;-73
2021/10/17 04:16:20;;;;;;;26.40;15.55;;;;;;;4.53;100.00;100787.41;5134627;27;20077;-73
2021/10/17 04:18:51;;;;;;;25.13;15.57;;;;;;;4.48;100.00;100784.91;5134116;27;20054;-73
2021/10/17 04:21:19;;;;;;;26.90;15.20;;;;;;;4.40;100.00;100784.22;5133037;27;20050;-73
2021/10/17 04:23:47;;;;;;;25.02;14.95;;;;;;;4.43;100.00;100784.13;5133591;27;20051;-70
2021/10/17 04:26:15;;;;;;;28.90;15.20;;;;;;;4.42;100.00;100790.31;5134626;27;20062;-70
2021/10/17 04:28:44;;;;;;;26.13;14.60;;;;;;;4.65;100.00;100791.50;5133616;27;20043;-70
2021/10/17 04:31:14;;;;;;;25.65;15.30;;;;;;;4.92;100.00;100790.72;5133565;27;20118;-70
2021/10/17 04:33:42;;;;;;;25.90;14.27;;;;;;;5.06;100.00;100793.84;5133776;27;20058;-71
2021/10/17 04:36:11;;;;;;;23.67;14.10;;;;;;;5.00;100.00;100794.00;5133821;27;20050;-70
2021/10/17 04:38:39;;;;;;;22.73;13.93;;;;;;;4.96;100.00;100786.22;5133216;27;20039;-70
2021/10/17 04:41:08;;;;;;;26.45;15.60;;;;;;;4.77;100.00;100796.44;5133763;27;20049;-70
2021/10/17 04:43:36;;;;;;;25.98;15.02;;;;;;;4.50;100.00;100800.69;5133306;27;20050;-71
2021/10/17 04:46:04;;;;;;;28.63;16.92;;;;;;;4.64;100.00;100803.00;5133625;27;20046;-68
2021/10/17 04:48:34;;;;;;;27.52;15.18;;;;;;;4.78;100.00;100800.81;5133409;27;20130;-68
2021/10/17 04:51:05;;;;;;;27.08;16.00;;;;;;;4.76;100.00;100807.94;5133417;27;20035;-68
2021/10/17 04:53:33;;;;;;;28.52;17.42;;;;;;;4.57;100.00;100810.22;5132975;27;20043;-68
2021/10/17 04:56:01;;;;;;;28.73;17.05;;;;;;;4.54;100.00;100819.09;5133293;27;20054;-68
2021/10/17 04:58:29;;;;;;;29.02;17.50;;;;;;;4.54;100.00;100815.56;5133162;27;20035;-68
2021/10/17 05:01:00;;;;;;;29.92;17.42;;;;;;;4.52;100.00;100818.22;5133302;27;20042;-68
2021/10/17 05:03:28;;;;;;;30.23;16.50;;;;;;;4.46;100.00;100813.13;5133217;27;20035;-68
2021/10/17 05:05:58;;;;;;;29.08;16.10;;;;;;;4.48;100.00;100815.72;5133245;27;20043;-69
2021/10/17 05:08:26;;;;;;;25.10;14.75;;;;;;;4.42;100.00;100821.16;5133294;27;20100;-69
2021/10/17 05:10:55;;;;;;;28.17;16.30;;;;;;;4.31;100.00;100818.78;5132765;27;20053;-69
2021/10/17 05:13:26;;;;;;;24.80;16.17;;;;;;;4.12;100.00;100812.25;5133054;27;20054;-69
2021/10/17 05:15:54;;;;;;;27.05;16.17;;;;;;;4.15;100.00;100838.56;5132760;27;20430;-67
2021/10/17 05:18:23;;;;;;;25.50;15.00;;;;;;;4.21;100.00;100830.50;5132966;27;20100;-67
2021/10/17 05:20:51;;;;;;;25.85;15.55;;;;;;;4.33;100.00;100830.19;5132807;27;20047;-69
2021/10/17 05:23:23;;;;;;;24.95;15.50;;;;;;;4.26;100.00;100823.34;5132695;27;20403;-69
2021/10/17 05:25:51;;;;;;;26.80;15.30;;;;;;;4.29;100.00;100825.91;5132514;27;20527;-70
2021/10/17 05:28:20;;;;;;;28.90;15.80;;;;;;;4.21;100.00;100826.09;5133007;27;20047;-72
2021/10/17 05:30:48;;;;;;;25.02;14.27;;;;;;;4.31;100.00;100824.06;5132592;27;20039;-70
2021/10/17 05:33:16;;;;;;;26.73;15.52;;;;;;;4.28;100.00;100824.16;5132918;27;20120;-70
2021/10/17 05:35:44;;;;;;;24.73;15.07;;;;;;;4.22;100.00;100825.19;5132495;27;20047;-71
2021/10/17 05:38:13;;;;;;;25.42;14.52;;;;;;;4.19;100.00;100819.97;5132898;27;20036;-71
2021/10/17 05:40:42;;;;;;;22.92;13.60;;;;;;;4.40;100.00;100831.78;5132768;27;20039;-71
2021/10/17 05:43:18;;;;;;;25.88;14.02;;;;;;;4.46;100.00;100828.97;5133050;27;20389;-70
2021/10/17 05:45:49;;;;;;;23.73;14.32;;;;;;;4.60;100.00;100826.84;5132773;27;20122;-70
2021/10/17 05:48:17;;;;;;;27.13;16.08;;;;;;;4.50;100.00;100835.03;5132625;27;20100;-72
2021/10/17 05:50:46;;;;;;;27.73;14.70;;;;;;;4.66;100.00;100843.44;5132295;27;20136;-69
2021/10/17 05:53:14;;;;;;;25.95;15.10;;;;;;;4.68;100.00;100841.63;5132673;27;20482;-70
2021/10/17 05:55:43;;;;;;;28.35;15.82;;;;;;;4.59;100.00;100840.09;5132310;27;20047;-70
2021/10/17 05:58:11;;;;;;;28.70;16.38;;;;;;;4.51;100.00;100845.56;5132643;27;20392;-70
2021/10/17 06:00:40;;;;;;;28.55;15.90;;;;;;;4.53;100.00;100840.25;5132259;27;20044;-71
2021/10/17 06:03:08;;;;;;;23.55;14.55;;;;;;;4.66;100.00;100839.03;5132886;27;20127;-68
2021/10/17 06:05:36;;;;;;;27.77;15.52;;;;;;;4.88;100.00;100844.59;5135389;27;20480;-67
2021/10/17 06:08:05;;;;;;;27.55;16.58;;;;;;;4.86;100.00;100849.06;5131771;27;20046;-71
2021/10/17 06:10:33;;;;;;;28.38;15.48;;;;;;;5.02;100.00;100845.09;5132133;27;20404;-69
2021/10/17 06:13:03;;;;;;;28.15;15.55;;;;;;;5.04;100.00;100847.69;5132314;28;20065;-70
2021/10/17 06:15:31;;;;;;;25.85;15.63;;;;;;;5.01;100.00;100851.25;5131931;27;20131;-71
2021/10/17 06:17:59;;;;;;;28.02;15.30;;;;;;;5.16;100.00;100845.56;5131935;27;20047;-69
2021/10/17 06:20:28;;;;;;;27.90;15.90;;;;;;;5.10;100.00;100851.00;5132081;28;20058;-65
2021/10/17 06:22:57;;;;;;;27.90;16.60;;;;;;;5.12;100.00;100845.69;5131621;27;20210;-68
2021/10/17 06:25:25;;;;;;;26.95;15.15;;;;;;;5.31;100.00;100848.69;5131914;28;20057;-68
2021/10/17 06:27:53;;;;;;;24.40;15.30;;;;;;;5.40;100.00;100854.59;5131908;28;20039;-69
2021/10/17 06:30:23;;;;;;;22.20;14.95;;;;;;;5.21;100.00;100847.19;5132069;27;20043;-68
2021/10/17 06:32:51;;;;;;;24.65;14.65;;;;;;;5.32;100.00;100853.06;5131569;27;20047;-68
2021/10/17 06:35:19;;;;;;;25.15;14.43;;;;;;;5.39;100.00;100850.16;5131778;28;20517;-67
2021/10/17 06:37:48;;;;;;;23.73;14.85;;;;;;;5.47;100.00;100858.75;5131579;27;20043;-67
2021/10/17 06:40:16;;;;;;;22.15;13.63;;;;;;;5.58;100.00;100863.72;5132177;28;20043;-65
2021/10/17 06:42:44;;;;;;;25.00;14.38;;;;;;;5.50;100.00;100860.47;5131484;27;20074;-65
2021/10/17 06:45:12;;;;;;;25.35;15.05;;;;;;;5.53;100.00;100862.16;5135275;27;20053;-69
2021/10/17 06:47:42;;;;;;;25.63;13.48;;;;;;;5.53;100.00;100868.31;5135221;27;20043;-72
2021/10/17 06:50:10;;;;;;;23.25;13.43;;;;;;;5.68;100.00;100866.97;5135560;27;20073;-70
2021/10/17 06:52:38;;;;;;;20.98;12.63;;;;;;;5.73;100.00;100865.91;5135802;27;20549;-72
2021/10/17 06:55:08;;;;;;;24.50;13.65;;;;;;;5.82;100.00;100869.22;5135322;27;20061;-71
2021/10/17 06:57:36;;;;;;;20.98;13.32;;;;;;;5.93;100.00;100872.41;5134955;27;20460;-71
2021/10/17 07:00:06;;;;;;;22.42;12.27;;;;;;;6.03;100.00;100868.56;5134030;27;20092;-70
2021/10/17 07:02:35;;;;;;;20.80;12.25;;;;;;;6.22;100.00;100863.53;5135751;27;20087;-70
2021/10/17 07:05:06;;;;;;;24.67;13.65;;;;;;;6.07;100.00;100871.97;5135367;27;20117;-71
2021/10/17 07:07:34;;;;;;;24.00;13.65;;;;;;;6.03;100.00;100874.72;5135403;27;20050;-71
2021/10/17 07:10:07;;;;;;;22.90;13.75;;;;;;;6.08;100.00;100879.00;5135551;27;20095;-71
2021/10/17 07:12:36;;;;;;;28.90;14.68;;;;;;;6.22;100.00;100880.31;5135597;27;20099;-68
2021/10/17 07:15:05;;;;;;;24.30;13.98;;;;;;;6.25;100.00;100882.84;5135090;27;20039;-70
2021/10/17 07:17:36;;;;;;;24.35;14.23;;;;;;;6.27;100.00;100878.38;5135481;27;20039;-70
2021/10/17 07:20:13;;;;;;;23.70;14.88;;;;;;;6.43;100.00;100878.72;5135022;27;20122;-69
2021/10/17 07:22:41;;;;;;;20.80;12.98;;;;;;;6.45;100.00;100883.97;5168524;27;20050;-76
2021/10/17 07:25:12;;;;;;;23.50;13.32;;;;;;;6.55;100.00;100877.44;5135038;27;20536;-69
2021/10/17 07:27:40;;;;;;;22.40;13.30;;;;;;;6.53;100.00;100884.59;5134948;27;20054;-69
2021/10/17 07:30:09;;;;;;;24.50;14.45;;;;;;;6.50;100.00;100874.09;5134766;27;20501;-69
2021/10/17 07:32:37;;;;;;;23.33;13.98;;;;;;;6.58;100.00;100869.41;5134898;27;20083;-69
2021/10/17 07:35:06;;;;;;;22.73;13.80;;;;;;;6.81;100.00;100880.09;5134487;27;20047;-68
2021/10/17 07:37:37;;;;;;;24.85;13.60;;;;;;;7.00;100.00;100879.44;5133002;27;20083;-69
2021/10/17 07:40:07;;;;;;;24.48;14.35;;;;;;;6.93;100.00;100881.44;5134217;27;20076;-68
2021/10/17 07:42:36;;;;;;;21.65;12.93;;;;;;;7.07;100.00;100875.66;5134561;27;20054;-68
2021/10/17 07:45:06;;;;;;;26.00;13.77;;;;;;;7.15;100.00;100878.91;5134142;27;20043;-69
2021/10/17 07:47:35;;;;;;;20.83;14.48;;;;;;;7.06;100.00;100874.78;5134405;27;20038;-69
2021/10/17 07:50:05;;;;;;;23.15;13.88;;;;;;;7.25;100.00;100876.78;5134184;27;20054;-67
2021/10/17 07:52:34;;;;;;;21.40;12.80;;;;;;;7.42;100.00;100882.31;5131897;27;20108;-68
2021/10/17 07:55:04;;;;;;;22.67;13.15;;;;;;;7.43;100.00;100873.44;5127014;27;20361;-68
2021/10/17 07:57:44;;;;;;;23.08;13.48;;;;;;;7.51;100.00;100876.66;5113874;28;20119;-68
2021/10/17 08:00:13;;;;;;;22.05;12.85;;;;;;;7.62;100.00;100876.25;5114182;28;20046;-68
2021/10/17 08:02:42;;;;;;;19.55;11.20;;;;;;;7.71;100.00;100878.56;5114203;28;20043;-67
2021/10/17 08:05:10;;;;;;;20.00;11.77;;;;;;;7.65;100.00;100879.69;5113871;28;20444;-68
2021/10/17 08:07:39;;;;;;;21.88;11.55;;;;;;;7.60;100.00;100880.75;5113636;28;20047;-68
2021/10/17 08:10:12;;;;;;;20.88;11.65;;;;;;;7.65;100.00;100886.78;5113268;28;20134;-68
2021/10/17 08:12:40;;;;;;;19.40;11.82;;;;;;;7.80;100.00;100880.88;5113999;28;20067;-68
2021/10/17 08:15:10;;;;;;;21.58;11.10;;;;;;;7.82;100.00;100881.69;5113690;28;20043;-68
2021/10/17 08:17:39;;;;;;;24.02;11.70;;;;;;;7.80;100.00;100882.66;5113572;28;20100;-68
2021/10/17 08:20:09;;;;;;;21.15;11.05;;;;;;;7.80;100.00;100878.22;5113494;28;20036;-68
2021/10/17 08:22:37;;;;;;;20.85;11.52;;;;;;;7.90;99.69;100876.06;5115766;27;20045;-68
2021/10/17 08:25:06;;;;;;;19.27;11.65;;;;;;;8.12;98.15;100874.31;5133995;27;20046;-69
2021/10/17 08:27:40;;;;;;;20.35;12.07;;;;;;;8.20;98.16;100879.28;5134060;27;20437;-68
2021/10/17 08:30:10;;;;;;;23.95;11.95;;;;;;;8.63;94.46;100869.59;5134027;27;20039;-68
2021/10/17 08:32:38;;;;;;;21.77;10.75;;;;;;;8.60;91.22;100871.44;5133438;27;20063;-68
2021/10/17 08:35:07;;;;;;;20.48;9.75;;;;;;;8.73;89.77;100876.25;5133710;27;20141;-68
2021/10/17 08:37:35;;;;;;;17.90;9.10;;;;;;;8.78;89.88;100875.13;5133883;27;20116;-68
2021/10/17 08:40:07;;;;;;;17.40;9.63;;;;;;;8.83;90.04;100859.81;5133731;27;20414;-68
2021/10/17 08:42:37;;;;;;;20.75;9.07;;;;;;;8.91;88.86;100875.47;5133781;27;20415;-68
2021/10/17 08:45:06;;;;;;;20.45;9.43;;;;;;;9.31;86.70;100869.22;5133488;27;20070;-68
2021/10/17 08:47:51;;;;;;;21.23;9.30;;;;;;;9.23;86.58;100867.84;5133648;27;20039;-68
2021/10/17 08:50:20;;;;;;;19.08;9.20;;;;;;;9.17;87.08;100869.84;5133397;27;20051;-68
2021/10/17 08:52:48;;;;;;;17.92;8.95;;;;;;;9.33;85.74;100874.47;5133388;27;20088;-68
2021/10/17 08:55:16;;;;;;;19.88;9.68;;;;;;;9.61;84.15;100872.28;5133617;27;20065;-68
2021/10/17 08:57:46;;;;;;;15.30;8.90;;;;;;;9.56;83.89;100873.44;5133488;27;20122;-68
2021/10/17 09:00:29;;;;;;;17.33;9.48;;;;;;;9.46;85.43;100873.00;5133260;27;20039;-68
2021/10/17 09:02:57;;;;;;;20.40;9.27;;;;;;;9.41;85.32;100869.69;5133727;27;20077;-68
2021/10/17 09:05:36;;;;;;;20.70;9.43;;;;;;;9.37;85.75;100868.09;5133090;27;20047;-68
2021/10/17 09:08:08;;;;;;;19.38;9.23;;;;;;;9.69;83.48;100869.28;5133136;27;20066;-67
2021/10/17 09:10:38;;;;;;;15.10;8.75;;;;;;;9.82;82.64;100869.56;5133055;27;20372;-68
2021/10/17 09:13:10;;;;;;;17.30;9.30;;;;;;;9.95;81.02;100860.91;5133278;27;20464;-67
2021/10/17 09:15:39;;;;;;;20.52;9.98;;;;;;;9.93;81.97;100868.09;5133179;27;20141;-67
2021/10/17 09:18:16;;;;;;;18.63;9.63;;;;;;;10.03;81.11;100866.72;5133154;27;20043;-67
2021/10/17 09:21:02;;;;;;;18.70;9.30;;;;;;;10.18;79.78;100862.47;5133185;27;20472;-67
2021/10/17 09:23:44;;;;;;;17.95;9.82;;;;;;;10.08;81.65;100865.66;5133135;27;20337;-67
2021/10/17 09:26:20;;;;;;;17.67;9.83;;;;;;;10.03;81.77;100869.38;5133198;27;20118;-67
2021/10/17 09:28:51;;;;;;;16.13;8.82;;;;;;;10.12;80.78;100870.75;5132913;27;20073;-67
2021/10/17 09:31:21;;;;;;;16.38;7.97;;;;;;;10.18;80.32;100867.78;5132877;27;20112;-68
2021/10/17 09:33:53;;;;;;;17.27;8.50;;;;;;;10.14;80.69;100871.56;5133113;27;20039;-67
2021/10/17 09:36:24;;;;;;;16.83;8.70;;;;;;;10.11;79.91;100866.34;5132834;27;20042;-67
2021/10/17 09:38:55;;;;;;;19.33;8.68;;;;;;;10.22;79.76;100872.06;5133060;27;20043;-67
2021/10/17 09:41:32;;;;;;;14.85;8.23;;;;;;;10.27;79.03;100864.72;5132914;28;20108;-67
2021/10/17 09:44:03;;;;;;;18.95;8.60;;;;;;;10.31;78.69;100858.28;5132900;27;20455;-67
2021/10/17 09:46:32;;;;;;;17.58;8.93;;;;;;;10.25;78.33;100863.94;5132852;27;20054;-67
2021/10/17 09:49:01;;;;;;;19.00;9.38;;;;;;;10.26;78.70;100860.31;5132905;27;20078;-67
2021/10/17 09:51:30;;;;;;;18.92;8.93;;;;;;;10.37;77.68;100856.25;5132762;27;20043;-67
2021/10/17 09:54:00;;;;;;;19.02;8.45;;;;;;;10.52;77.65;100856.38;5132624;27;20488;-67
2021/10/17 09:56:33;;;;;;;17.48;8.75;;;;;;;10.62;76.66;100854.09;5132606;27;20035;-67
2021/10/17 09:59:04;;;;;;;;;;;;;;;10.66;76.85;100853.00;5133259;28;20043;-67
2021/10/17 10:01:33;;;;;;;15.90;8.30;;;;;;;10.59;76.33;100855.09;5132794;28;19927;-67
2021/10/17 10:04:03;;;;;;;20.08;9.88;;;;;;;10.72;76.05;100854.50;5132778;27;20070;-67
2021/10/17 10:06:34;;;;;;;17.33;9.02;;;;;;;10.71;76.30;100850.97;5132522;27;20055;-67
2021/10/17 10:09:04;;;;;;;15.30;8.70;;;;;;;10.73;76.25;100849.06;5132360;27;20147;-67
2021/10/17 10:11:34;;;;;;;16.40;9.02;;;;;;;10.79;75.54;100846.06;5132592;27;20039;-67
2021/10/17 10:14:05;;;;;;;16.23;9.18;;;;;;;10.82;76.19;100840.59;5132840;27;20159;-67
2021/10/17 10:16:35;;;;;;;19.50;9.32;;;;;;;10.95;75.62;100842.63;5131222;27;20397;-67
2021/10/17 10:19:07;;;;;;;14.95;9.05;;;;;;;10.83;76.09;100839.66;5135895;27;20051;-67
2021/10/17 10:21:36;;;;;;;14.40;8.57;;;;;;;10.82;76.28;100832.59;5136406;27;20067;-67
2021/10/17 10:24:07;;;;;;;16.38;8.60;;;;;;;10.85;76.01;100837.75;5136350;27;20043;-67
2021/10/17 10:26:37;;;;;;;14.95;8.35;;;;;;;10.93;74.84;100839.16;5136463;27;20174;-68
2021/10/17 10:29:24;;;;;;;16.13;8.80;;;;;;;10.80;75.25;100831.78;5136382;27;20043;-67
2021/10/17 10:31:55;;;;;;;13.52;7.40;;;;;;;10.77;74.90;100831.09;5136321;27;20364;-67
2021/10/17 10:35:03;;;;;;;13.40;7.55;;;;;;;10.95;73.89;100826.59;5136364;27;20035;-68
2021/10/17 10:37:48;;;;;;;16.50;8.32;;;;;;;10.98;74.54;100829.97;5136163;27;20125;-66
2021/10/17 10:40:20;;;;;;;;;;;;;;;11.21;73.41;100823.41;5136384;27;20088;-67
2021/10/17 10:42:50;;;;;;;18.70;8.77;;;;;;;11.13;73.57;100814.94;5136319;27;19967;-66
2021/10/17 10:45:37;;;;;;;16.48;8.65;;;;;;;10.95;73.69;100810.59;5136261;27;20122;-66
2021/10/17 10:48:22;;;;;;;16.50;8.77;;;;;;;11.07;74.42;100809.94;5135974;27;20039;-67
2021/10/17 10:50:57;;;;;;;15.25;7.22;;;;;;;11.35;72.92;100809.31;5135815;27;20035;-66
2021/10/17 10:53:45;;;;;;;13.45;7.82;;;;;;;11.23;73.32;100805.50;5135551;27;20455;-67
2021/10/17 10:56:46;;;;;;;13.82;7.70;;;;;;;11.45;71.80;100803.38;5135724;27;20039;-68
2021/10/17 10:59:17;;;;;;;14.20;7.55;;;;;;;11.32;73.00;100814.81;5135795;27;20349;-68
2021/10/17 11:01:58;;;;;;;12.95;7.07;;;;;;;11.28;72.84;100802.56;5135901;27;20047;-68
2021/10/17 11:05:00;;;;;;;15.07;8.02;;;;;;;11.38;72.66;100804.66;5135492;27;20472;-68
2021/10/17 11:07:34;;;;;;;18.95;8.48;;;;;;;11.15;72.93;100797.03;5132613;27;20063;-67
2021/10/17 11:10:43;;;;;;;20.13;9.23;;;;;;;11.13;73.92;100798.94;5135455;27;20096;-68
2021/10/17 11:13:28;;;;;;;16.25;7.90;;;;;;;11.23;74.33;100792.16;5134914;27;20073;-71
2021/10/17 11:15:57;;;;;;;14.73;8.00;;;;;;;11.40;73.61;100786.75;5134982;27;20046;-69
2021/10/17 11:18:36;;;;;;;14.02;7.80;;;;;;;11.57;72.30;100788.47;5135111;27;20062;-67
2021/10/17 11:21:06;;;;;;;15.07;7.97;;;;;;;11.46;71.81;100791.75;5138718;27;20058;-69
2021/10/17 11:23:36;;;;;;;14.68;7.55;;;;;;;11.34;71.98;100783.53;5134794;27;20503;-68
2021/10/17 11:26:06;;;;;;;13.98;8.38;;;;;;;11.23;72.37;100788.63;5134378;27;20047;-69